Latest Coastal Weather Observations for Swan Island

IDT60701

Issued at 7:45 am EDT Saturday 1 November 2014 (issued every 10 minutes, with the page automatically refreshed every 10 minutes)

About coastal observations | Map of coastal stations | Coastal observations for TAS | Marine services | Other Formats
Station Details ID: 092123 Name: SWAN ISLAND Lat: -40.73 Lon: 148.12 Height: 15.0 m
Data from the previous 72 hours. | See also: Recent months at Swan Island
Date/Time
EDT
Temp

°C
Wind Pressure Rain
since 9am
mm
Weather Cloud Vis
km
Sea
Height
m
Swell
Dir
 
Speed
knots
Gust
knots
hPa Trend Height
m
Period
s
Dir
01/07:30am 14.4 WNW 20 28 993.7 - 0.0 - - - - - - -
01/07:00am 14.3 WNW 18 28 993.4 - 0.0 - - - - - - -
01/06:30am 14.5 WNW 14 21 993.4 - 0.0 - - - - - - -
01/06:00am 14.5 W 15 21 992.8 - 0.0 - - - - - - -
01/05:30am 14.7 W 18 24 992.7 - 0.0 - - - - - - -
01/05:00am 15.2 W 21 28 993.1 - 0.0 - - - - - - -
01/04:30am 15.4 W 19 24 992.4 - 0.0 - - - - - - -
01/04:00am 15.3 NW 13 17 991.6 - 0.0 - - - - - - -
01/03:30am 15.6 NW 10 13 991.5 - 0.0 - - - - - - -
01/03:00am 16.5 WNW 9 13 991.9 - 0.0 - - - - - - -
01/02:30am 17.2 WNW 9 19 992.1 - 0.0 - - - - - - -
01/02:00am 18.5 W 10 20 992.7 - 0.0 - - - - - - -
01/01:52am 20.0 WNW 13 20 993.4 - 0.0 - - - - - - -
01/01:30am 17.3 NNE 17 22 991.1 - 0.0 - - - - - - -
01/01:00am 17.4 NNE 19 23 992.1 - 0.0 - - - - - - -
01/12:30am 17.2 NNE 17 23 993.0 - 0.0 - - - - - - -
01/12:00am 17.2 NNE 19 26 993.7 - 0.0 - - - - - - -
 
Date/Time
EDT
Temp

°C
Wind Pressure Rain
since 9am
mm
Weather Cloud Vis
km
Sea
Height
m
Swell
Dir
 
Speed
knots
Gust
knots
hPa Trend Height
m
Period
s
Dir
31/11:30pm 17.5 NNE 21 27 994.5 - 0.0 - - - - - - -
31/11:00pm 17.1 NNE 19 25 995.3 - 0.0 - - - - - - -
31/10:30pm 17.1 N 24 30 996.2 - 0.0 - - - - - - -
31/10:00pm 16.8 N 23 27 997.1 - 0.0 - - - - - - -
31/09:51pm 16.6 N 22 27 997.3 - 0.0 - - - - - - -
31/09:30pm 16.0 NNE 12 16 998.2 - 0.0 - - - - - - -
31/09:00pm 14.8 NNE 9 12 999.0 - 0.0 - - - - - - -
31/08:30pm 14.9 NNE 11 15 999.7 - 0.0 - - - - - - -
31/08:00pm 15.1 NNE 10 13 1000.3 - 0.0 - - - - - - -
31/07:30pm 14.1 E 5 7 1001.0 - 0.0 - - - - - - -
31/07:00pm 14.6 E 5 6 1001.3 - 0.0 - - - - - - -
31/06:30pm 16.2 ENE 2 3 1001.4 - 0.0 - - - - - - -
31/06:00pm 16.5 N 1 2 1002.0 - 0.0 - - - - - - -
31/05:30pm 17.8 W 4 5 1002.5 - 0.0 - - - - - - -
31/05:00pm 15.6 NW 4 5 1002.9 - 0.0 - - - - - - -
31/04:30pm 16.0 NW 4 6 1003.3 - 0.0 - - - - - - -
31/04:00pm 16.2 NW 5 8 1003.4 - 0.0 - - - - - - -
31/03:30pm 17.6 WNW 6 8 1004.0 - 0.0 - - - - - - -
31/03:00pm 17.1 WNW 6 9 1004.5 - 0.0 - - - - - - -
31/02:30pm 16.2 WNW 8 11 1005.4 - 0.0 - - - - - - -
31/02:00pm 16.7 NW 9 13 1006.0 - 0.0 - - - - - - -
31/01:30pm 16.3 NW 13 16 1006.3 - 0.0 - - - - - - -
31/01:00pm 16.2 NW 16 19 1006.6 - 0.0 - - - - - - -
31/12:30pm 15.4 NNW 16 20 1006.6 - 0.0 - - - - - - -
31/12:00pm 15.4 NW 17 21 1007.3 - 0.0 - - - - - - -
31/11:30am 15.8 NW 16 22 1007.7 - 0.0 - - - - - - -
31/11:00am 15.0 NW 18 23 1007.8 - 0.0 - - - - - - -
31/10:30am 15.3 NNW 20 24 1007.6 - 0.0 - - - - - - -
31/10:00am 14.2 NW 19 24 1008.0 - 0.0 - - - - - - -
31/09:30am 14.2 NW 16 22 1008.4 - 0.0 - - - - - - -
31/09:00am 14.5 NW 17 22 1008.8 - 0.0 - - - - - - -
31/08:30am 13.7 NW 15 19 1008.9 - 0.0 - - - - - - -
31/08:00am 13.6 NW 15 18 1008.8 - 0.0 - - - - - - -
31/07:30am 13.2 NW 13 16 1008.8 - 0.0 - - - - - - -
31/07:00am 13.1 NW 14 19 1009.1 - 0.0 - - - - - - -
31/06:30am 13.0 WNW 13 18 1008.9 - 0.0 - - - - - - -
31/06:00am 12.8 WNW 14 21 1008.9 - 0.0 - - - - - - -
31/05:30am 12.6 W 10 17 1008.8 - 0.0 - - - - - - -
31/05:00am 12.9 WNW 14 18 1008.7 - 0.0 - - - - - - -
31/04:30am 12.6 WNW 15 21 1008.7 - 0.0 - - - - - - -
31/04:00am 12.6 WNW 12 18 1009.0 - 0.0 - - - - - - -
31/03:30am 12.7 WNW 15 20 1009.4 - 0.0 - - - - - - -
31/03:00am 12.8 WNW 14 24 1009.6 - 0.0 - - - - - - -
31/02:30am 12.6 WNW 14 21 1009.7 - 0.0 - - - - - - -
31/02:00am 12.7 W 13 19 1009.9 - 0.0 - - - - - - -
31/01:30am 12.9 WNW 14 21 1010.2 - 0.0 - - - - - - -
31/01:00am 12.8 WNW 11 17 1010.2 - 0.0 - - - - - - -
31/12:30am 13.0 WNW 11 16 1010.4 - 0.0 - - - - - - -
31/12:00am 12.9 W 15 20 1010.7 - 0.0 - - - - - - -
 
Date/Time
EDT
Temp

°C
Wind Pressure Rain
since 9am
mm
Weather Cloud Vis
km
Sea
Height
m
Swell
Dir
 
Speed
knots
Gust
knots
hPa Trend Height
m
Period
s
Dir
30/11:30pm 13.1 W 15 21 1010.8 - 0.0 - - - - - - -
30/11:00pm 13.2 W 16 22 1010.7 - 0.0 - - - - - - -
30/10:30pm 13.3 W 14 20 1010.9 - 0.0 - - - - - - -
30/10:00pm 13.3 W 15 21 1010.9 - 0.0 - - - - - - -
30/09:30pm 13.3 W 17 24 1010.8 - 0.0 - - - - - - -
30/09:00pm 13.3 W 15 22 1010.4 - 0.0 - - - - - - -
30/08:30pm 13.5 WNW 13 19 1010.4 - 0.0 - - - - - - -
30/08:00pm 13.6 WNW 14 21 1010.3 - 0.0 - - - - - - -
30/07:30pm 13.6 WNW 14 22 1010.0 - 0.0 - - - - - - -
30/07:00pm 13.9 W 15 22 1010.1 - 0.0 - - - - - - -
30/06:30pm 14.3 WNW 15 21 1009.8 - 0.0 - - - - - - -
30/06:00pm 14.8 WNW 16 23 1009.9 - 0.0 - - - - - - -
30/05:30pm 15.3 WNW 17 25 1009.8 - 0.0 - - - - - - -
30/05:00pm 15.4 WNW 17 22 1009.5 - 0.0 - - - - - - -
30/04:30pm 15.7 WNW 18 24 1009.7 - 0.0 - - - - - - -
30/04:00pm 15.7 WNW 19 26 1009.4 - 0.0 - - - - - - -
30/03:30pm 15.9 WNW 18 25 1009.5 - 0.0 - - - - - - -
30/03:25pm 16.1 WNW 18 28 1009.4 - 0.0 - - - - - - -
30/03:00pm 15.9 WNW 19 25 1009.4 - 0.0 - - - - - - -
30/02:30pm 16.2 WNW 18 25 1009.6 - 0.0 - - - - - - -
30/02:00pm 16.0 WNW 19 30 1009.6 - 0.0 - - - - - - -
30/01:30pm 16.1 WNW 18 25 1010.1 - 0.0 - - - - - - -
30/01:00pm 16.6 WNW 16 23 1009.9 - 0.0 - - - - - - -
30/12:30pm 16.6 WNW 15 26 1010.1 - 0.0 - - - - - - -
30/12:29pm 16.5 WNW 15 26 1010.1 - 0.0 - - - - - - -
30/12:00pm 16.3 WNW 17 25 1010.2 - 0.0 - - - - - - -
30/11:30am 16.4 WNW 15 21 1010.6 - 0.0 - - - - - - -
30/11:00am 15.7 WNW 16 21 1010.8 - 0.0 - - - - - - -
30/10:30am 15.6 WNW 14 22 1011.1 - 0.0 - - - - - - -
30/10:00am 15.3 WNW 15 21 1010.9 - 0.0 - - - - - - -
30/09:30am 15.1 WNW 16 24 1010.7 - 0.0 - - - - - - -
30/09:00am 15.1 WNW 15 23 1010.9 - 0.0 - - - - - - -
30/08:30am 14.3 WNW 17 23 1010.6 - 0.0 - - - - - - -
30/08:00am 13.9 WNW 18 25 1010.3 - 0.0 - - - - - - -
30/07:30am 13.5 WNW 17 23 1010.2 - 0.0 - - - - - - -
30/07:00am 12.9 WNW 17 23 1010.1 - 0.0 - - - - - - -
30/06:30am 12.6 WNW 16 24 1009.8 - 0.0 - - - - - - -
30/06:00am 12.3 W 15 23 1009.5 - 0.0 - - - - - - -
30/05:30am 12.4 W 21 30 1009.4 - 0.0 - - - - - - -
30/05:09am 12.4 W 17 28 1009.5 - 0.0 - - - - - - -
30/05:00am 12.8 W 16 24 1009.6 - 0.0 - - - - - - -
30/04:30am 12.8 WNW 15 22 1009.4 - 0.0 - - - - - - -
30/04:00am 12.8 WNW 17 24 1009.4 - 0.0 - - - - - - -
30/03:52am 12.9 WNW 16 26 1009.5 - 0.0 - - - - - - -
30/03:30am 12.7 WNW 18 26 1009.4 - 0.0 - - - - - - -
30/03:00am 12.9 WNW 17 28 1009.2 - 0.0 - - - - - - -
30/02:52am 12.9 WNW 17 28 1009.2 - 0.0 - - - - - - -
30/02:30am 12.9 WNW 18 25 1009.3 - 0.0 - - - - - - -
30/02:16am 12.9 WNW 20 30 1009.3 - 0.0 - - - - - - -
30/02:00am 12.9 WNW 19 28 1009.3 - 0.0 - - - - - - -
30/01:30am 13.0 WNW 20 30 1009.6 - 0.0 - - - - - - -
30/01:03am 13.1 W 17 27 1009.9 - 0.0 - - - - - - -
30/01:00am 13.1 W 17 25 1009.9 - 0.0 - - - - - - -
30/12:30am 13.3 WNW 19 30 1010.1 - 0.0 - - - - - - -
30/12:01am 13.3 WNW 21 31 1010.3 - 0.0 - - - - - - -
30/12:00am 13.3 WNW 21 31 1010.3 - 0.0 - - - - - - -
 
Date/Time
EDT
Temp

°C
Wind Pressure Rain
since 9am
mm
Weather Cloud Vis
km
Sea
Height
m
Swell
Dir
 
Speed
knots
Gust
knots
hPa Trend Height
m
Period
s
Dir
29/11:55pm 13.3 WNW 19 30 1010.3 - 0.0 - - - - - - -
29/11:30pm 13.3 WNW 21 30 1010.5 - 0.0 - - - - - - -
29/11:04pm 13.3 WNW 22 33 1010.4 - 0.0 - - - - - - -
29/11:00pm 13.3 WNW 21 30 1010.6 - 0.0 - - - - - - -
29/10:30pm 13.3 WNW 22 33 1010.4 - 0.0 - - - - - - -
29/10:00pm 13.3 WNW 22 32 1010.5 - 0.0 - - - - - - -
29/09:33pm 13.3 WNW 23 34 1010.5 - 0.0 - - - - - - -
29/09:30pm 13.4 WNW 21 31 1010.6 - 0.0 - - - - - - -
29/09:01pm 13.3 WNW 23 34 1010.5 - 0.0 - - - - - - -
29/09:00pm 13.3 WNW 23 32 1010.6 - 0.0 - - - - - - -
29/08:30pm 13.3 WNW 24 35 1010.3 - 0.0 - - - - - - -
29/08:27pm 13.2 WNW 23 35 1010.2 - 0.0 - - - - - - -
29/08:00pm 13.3 WNW 25 32 1010.0 - 0.0 - - - - - - -
29/07:34pm 13.4 WNW 24 35 1010.0 - 0.0 - - - - - - -
29/07:30pm 13.5 WNW 24 34 1010.0 - 0.0 - - - - - - -
29/07:12pm 13.5 WNW 25 38 1009.8 - 0.0 - - - - - - -
29/07:00pm 13.7 WNW 25 33 1009.7 - 0.0 - - - - - - -
29/06:36pm 13.8 WNW 27 37 1009.3 - 0.0 - - - - - - -
29/06:30pm 13.8 WNW 28 36 1009.4 - 0.0 - - - - - - -
29/06:00pm 14.1 WNW 26 39 1009.3 - 0.0 - - - - - - -
29/05:40pm 14.1 WNW 27 37 1009.5 - 0.0 - - - - - - -
29/05:30pm 14.1 WNW 25 35 1009.6 - 0.0 - - - - - - -
29/05:05pm 14.4 WNW 24 35 1009.9 - 0.0 - - - - - - -
29/05:00pm 14.6 WNW 24 33 1010.0 - 0.0 - - - - - - -
29/04:38pm 14.5 WNW 25 36 1009.9 - 0.0 - - - - - - -
29/04:30pm 14.6 WNW 24 33 1010.0 - 0.0 - - - - - - -
29/04:00pm 14.5 WNW 25 32 1010.3 - 0.0 - - - - - - -
29/03:30pm 14.8 WNW 24 35 1010.6 - 0.0 - - - - - - -
29/03:00pm 15.3 WNW 23 33 1011.1 - 0.0 - - - - - - -
29/02:59pm 15.1 WNW 23 33 1011.1 - 0.0 - - - - - - -
29/02:30pm 15.4 WNW 23 30 1011.5 - 0.0 - - - - - - -
29/02:00pm 15.2 WNW 21 28 1011.9 - 0.0 - - - - - - -
29/01:30pm 14.3 WNW 20 28 1012.4 - 0.0 - - - - - - -
29/01:22pm 13.7 WNW 18 28 1012.5 - 0.0 - - - - - - -
29/01:00pm 15.4 WNW 20 28 1012.5 - 0.0 - - - - - - -
29/12:30pm 15.1 WNW 19 27 1012.7 - 0.0 - - - - - - -
29/12:00pm 15.4 W 19 26 1012.9 - 0.0 - - - - - - -
29/11:30am 15.7 W 17 24 1013.1 - 0.0 - - - - - - -
29/11:02am 13.8 W 19 30 1013.5 - 0.0 - - - - - - -
29/11:00am 13.7 W 21 30 1013.4 - 0.0 - - - - - - -
29/10:34am 13.9 W 22 32 1013.2 - 0.0 - - - - - - -
29/10:30am 13.8 W 24 32 1013.3 - 0.0 - - - - - - -
29/10:16am 14.4 W 20 30 1013.2 - 0.0 - - - - - - -
29/10:00am 14.2 W 23 29 1013.4 - 0.0 - - - - - - -
29/09:41am 13.8 W 21 31 1013.3 - 0.0 - - - - - - -
29/09:30am 13.8 W 20 28 1013.4 - 0.0 - - - - - - -
29/09:00am 13.5 W 18 26 1013.1 - 0.0 - - - - - - -
29/08:30am 12.9 W 19 24 1013.0 - 0.0 - - - - - - -
29/08:00am 12.2 W 14 20 1012.7 - 0.0 - - - - - - -

Other Formats:

Comma delimited format used in spreadsheet applications
http://www.bom.gov.au/fwo/IDT60701/IDT60701.95985.axf

JavaScript Object Notation format (JSON) in row-major order
http://www.bom.gov.au/fwo/IDT60701/IDT60701.95985.json